createdAt,value
2022-10-28T00:01:28.231Z,15.92
2022-10-28T00:03:58.740Z,15.90
2022-10-28T00:06:33.415Z,15.89
2022-10-28T00:09:01.418Z,15.87
2022-10-28T00:11:33.599Z,15.85
2022-10-28T00:14:07.066Z,15.83
2022-10-28T00:16:37.719Z,15.81
2022-10-28T00:19:08.375Z,15.78
2022-10-28T00:21:39.183Z,15.77
2022-10-28T00:24:08.785Z,15.76
2022-10-28T00:26:39.531Z,15.74
2022-10-28T00:29:16.122Z,15.71
2022-10-28T00:31:44.572Z,15.70
2022-10-28T00:34:18.592Z,15.67
2022-10-28T00:36:48.101Z,15.64
2022-10-28T00:39:22.876Z,15.63
2022-10-28T00:41:55.480Z,15.64
2022-10-28T00:44:57.085Z,15.63
2022-10-28T00:47:33.919Z,15.60
2022-10-28T00:50:14.582Z,15.60
2022-10-28T00:52:44.525Z,15.59
2022-10-28T00:55:16.136Z,15.60
2022-10-28T00:57:45.154Z,15.58
2022-10-28T01:00:14.227Z,15.59
2022-10-28T01:02:47.902Z,15.58
2022-10-28T01:05:22.238Z,15.53
2022-10-28T01:07:53.410Z,15.54
2022-10-28T01:10:28.882Z,15.54
2022-10-28T01:13:17.119Z,15.53
2022-10-28T01:16:11.361Z,15.52
2022-10-28T01:19:45.763Z,15.50
2022-10-28T01:22:55.674Z,15.48
2022-10-28T01:26:00.704Z,15.44
2022-10-28T01:29:12.557Z,15.44
2022-10-28T01:32:07.783Z,15.42
2022-10-28T01:35:09.499Z,15.40
2022-10-28T01:38:14.767Z,15.39
2022-10-28T01:41:28.154Z,15.39
2022-10-28T01:44:26.655Z,15.34
2022-10-28T01:47:11.758Z,15.33
2022-10-28T01:50:26.775Z,15.32
2022-10-28T01:53:00.379Z,15.31
2022-10-28T01:55:42.045Z,15.30
2022-10-28T01:58:15.233Z,15.27
2022-10-28T02:00:45.429Z,15.26
2022-10-28T02:03:13.058Z,15.27
2022-10-28T02:05:46.272Z,15.26
2022-10-28T02:08:46.588Z,15.26
2022-10-28T02:11:41.915Z,15.25
2022-10-28T02:14:17.465Z,15.25
2022-10-28T02:17:08.854Z,15.24
2022-10-28T02:20:00.196Z,15.23
2022-10-28T02:22:46.227Z,15.22
2022-10-28T02:25:46.213Z,15.20
2022-10-28T02:28:29.570Z,15.17
2022-10-28T02:31:22.887Z,15.16
2022-10-28T02:33:57.353Z,15.14
2022-10-28T02:36:27.464Z,15.14
2022-10-28T02:38:58.714Z,15.15
2022-10-28T02:41:44.552Z,15.15
2022-10-28T02:44:18.777Z,15.13
2022-10-28T02:46:50.406Z,15.10
2022-10-28T02:49:18.420Z,15.08
2022-10-28T02:52:03.505Z,15.09
2022-10-28T02:54:45.902Z,15.11
2022-10-28T02:57:24.898Z,15.09
2022-10-28T02:59:57.902Z,15.08
2022-10-28T03:02:26.868Z,15.03
2022-10-28T03:04:54.755Z,15.01
2022-10-28T03:07:22.433Z,15.01
2022-10-28T03:09:50.323Z,15.00
2022-10-28T03:12:18.083Z,14.99
2022-10-28T03:14:45.889Z,14.99
2022-10-28T03:17:13.453Z,14.95
2022-10-28T03:19:41.213Z,14.93
2022-10-28T03:22:08.849Z,14.92
2022-10-28T03:24:36.559Z,14.91
2022-10-28T03:27:04.335Z,14.89
2022-10-28T03:29:32.090Z,14.85
2022-10-28T03:31:59.604Z,14.86
2022-10-28T03:34:27.343Z,14.84
2022-10-28T03:36:54.976Z,14.81
2022-10-28T03:39:22.766Z,14.80
2022-10-28T03:41:50.244Z,14.76
2022-10-28T03:44:18.008Z,14.71
2022-10-28T03:46:45.546Z,14.71
2022-10-28T03:49:13.242Z,14.69
2022-10-28T03:51:40.713Z,14.66
2022-10-28T03:54:08.516Z,14.65
2022-10-28T03:56:35.991Z,14.63
2022-10-28T03:59:03.903Z,14.61
2022-10-28T04:01:31.515Z,14.58
2022-10-28T04:03:59.375Z,14.57
2022-10-28T04:06:26.852Z,14.53
2022-10-28T04:08:54.667Z,14.53
2022-10-28T04:11:22.164Z,14.51
2022-10-28T04:13:50.125Z,14.50
2022-10-28T04:16:17.624Z,14.50
2022-10-28T04:18:45.438Z,14.46
2022-10-28T04:21:13.096Z,14.43
2022-10-28T04:23:40.851Z,14.41
2022-10-28T04:26:08.340Z,14.36
2022-10-28T04:28:36.113Z,14.35
2022-10-28T04:31:04.058Z,14.33
2022-10-28T04:33:31.793Z,14.31
2022-10-28T04:35:59.293Z,14.29
2022-10-28T04:38:27.020Z,14.29
2022-10-28T04:40:54.681Z,14.28
2022-10-28T04:43:22.455Z,14.29
2022-10-28T04:45:50.019Z,14.28
2022-10-28T04:48:17.795Z,14.25
2022-10-28T04:50:45.733Z,14.26
2022-10-28T04:53:14.107Z,14.27
2022-10-28T04:55:41.570Z,14.26
2022-10-28T04:58:10.202Z,14.24
2022-10-28T05:00:37.750Z,14.23
2022-10-28T05:03:05.545Z,14.24
2022-10-28T05:05:33.357Z,14.22
2022-10-28T05:08:01.909Z,14.21
2022-10-28T05:10:31.425Z,14.22
2022-10-28T05:12:59.223Z,14.25
2022-10-28T05:15:26.916Z,14.22
2022-10-28T05:17:55.127Z,14.22
2022-10-28T05:20:23.931Z,14.22
2022-10-28T05:22:55.333Z,14.24
2022-10-28T05:25:23.881Z,14.21
2022-10-28T05:27:52.349Z,14.20
2022-10-28T05:30:20.378Z,14.18
2022-10-28T05:32:50.360Z,14.19
2022-10-28T05:35:20.500Z,14.18
2022-10-28T05:37:48.311Z,14.19
2022-10-28T05:40:15.877Z,14.22
2022-10-28T05:42:44.455Z,14.25
2022-10-28T05:45:12.938Z,14.29
2022-10-28T05:47:45.890Z,14.32
2022-10-28T05:50:15.577Z,14.38
2022-10-28T05:52:51.903Z,14.40
2022-10-28T05:55:21.481Z,14.41
2022-10-28T05:57:51.706Z,14.36
2022-10-28T06:00:23.306Z,14.33
2022-10-28T06:02:51.650Z,14.31
2022-10-28T06:05:20.214Z,14.31
2022-10-28T06:07:48.145Z,14.31
2022-10-28T06:10:15.642Z,14.29
2022-10-28T06:12:42.080Z,14.30
2022-10-28T06:15:09.800Z,14.29
2022-10-28T06:17:37.654Z,14.29
2022-10-28T06:20:05.951Z,14.31
2022-10-28T06:22:33.809Z,14.32
2022-10-28T06:25:01.346Z,14.35
2022-10-28T06:27:31.250Z,14.38
2022-10-28T06:29:58.690Z,14.38
2022-10-28T06:32:26.526Z,14.37
2022-10-28T06:34:54.046Z,14.44
2022-10-28T06:37:21.820Z,14.47
2022-10-28T06:39:51.487Z,14.52
2022-10-28T06:42:19.700Z,14.54
2022-10-28T06:44:48.099Z,14.57
2022-10-28T06:47:17.356Z,14.62
2022-10-28T06:49:44.944Z,14.63
2022-10-28T06:52:12.716Z,14.68
2022-10-28T06:54:40.525Z,14.73
2022-10-28T06:57:08.268Z,14.77
2022-10-28T06:59:35.951Z,14.81
2022-10-28T07:02:04.819Z,14.85
2022-10-28T07:04:34.428Z,14.87
2022-10-28T07:07:01.988Z,14.90
2022-10-28T07:09:29.987Z,14.88
2022-10-28T07:12:00.873Z,14.88
2022-10-28T07:14:34.825Z,14.89
2022-10-28T07:17:02.662Z,14.91
2022-10-28T07:19:30.482Z,14.91
2022-10-28T07:21:57.994Z,14.92
2022-10-28T07:26:59.087Z,15.02
2022-10-28T07:29:26.887Z,15.06
2022-10-28T07:31:55.800Z,15.09
2022-10-28T07:34:27.089Z,15.08
2022-10-28T07:36:56.386Z,15.07
2022-10-28T07:39:24.512Z,15.05
2022-10-28T07:41:52.032Z,15.02
2022-10-28T07:44:19.753Z,15.02
2022-10-28T07:46:47.253Z,15.05
2022-10-28T07:49:15.046Z,15.06
2022-10-28T07:51:42.554Z,15.07
2022-10-28T07:54:10.509Z,15.12
2022-10-28T07:56:38.053Z,15.16
2022-10-28T07:59:05.732Z,15.22
2022-10-28T08:01:33.349Z,15.31
2022-10-28T08:04:01.076Z,15.39
2022-10-28T08:06:28.544Z,15.46
2022-10-28T08:08:57.225Z,15.53
2022-10-28T08:11:25.426Z,15.61
2022-10-28T08:13:55.357Z,15.70
2022-10-28T08:16:22.945Z,15.74
2022-10-28T08:18:50.652Z,15.76
2022-10-28T08:21:18.194Z,15.81
2022-10-28T08:23:46.883Z,15.85
2022-10-28T08:26:16.494Z,15.86
2022-10-28T08:28:44.302Z,15.89
2022-10-28T08:31:14.883Z,15.95
2022-10-28T08:33:45.499Z,16.02
2022-10-28T08:36:16.417Z,16.05
2022-10-28T08:38:46.247Z,16.07
2022-10-28T08:41:35.996Z,16.08
2022-10-28T08:44:32.846Z,16.09
2022-10-28T08:47:22.334Z,16.14
2022-10-28T08:50:00.417Z,16.20
2022-10-28T08:53:10.296Z,16.23
2022-10-28T08:55:44.575Z,16.23
2022-10-28T08:58:19.249Z,16.28
2022-10-28T09:00:57.251Z,16.24
2022-10-28T09:03:42.098Z,16.26
2022-10-28T09:06:11.502Z,16.23
2022-10-28T09:08:46.894Z,16.23
2022-10-28T09:11:45.388Z,16.25
2022-10-28T09:14:45.605Z,16.27
2022-10-28T09:17:25.431Z,16.23
2022-10-28T09:20:07.432Z,16.18
2022-10-28T09:22:49.188Z,16.21
2022-10-28T09:25:41.931Z,16.26
2022-10-28T09:28:30.721Z,16.34
2022-10-28T09:31:42.692Z,16.42
2022-10-28T09:34:43.691Z,16.42
2022-10-28T09:37:28.261Z,16.50
2022-10-28T09:40:01.453Z,16.61
2022-10-28T09:42:42.538Z,16.70
2022-10-28T09:45:23.343Z,16.83
2022-10-28T09:48:27.259Z,16.98
2022-10-28T09:50:57.509Z,17.10
2022-10-28T09:53:45.119Z,17.20
2022-10-28T09:56:12.885Z,17.28
2022-10-28T09:58:46.694Z,17.38
2022-10-28T10:01:17.963Z,17.48
2022-10-28T10:03:49.268Z,17.60
2022-10-28T10:06:37.364Z,17.72
2022-10-28T10:09:05.308Z,17.85
2022-10-28T10:11:46.861Z,17.96
2022-10-28T10:14:34.206Z,18.06
2022-10-28T10:17:23.058Z,18.14
2022-10-28T10:20:11.704Z,18.22
2022-10-28T10:22:45.276Z,18.26
2022-10-28T10:25:21.532Z,18.34
2022-10-28T10:27:59.405Z,18.40
2022-10-28T10:30:39.345Z,18.45
2022-10-28T10:33:19.694Z,18.49
2022-10-28T10:36:00.083Z,18.55
2022-10-28T10:38:29.397Z,18.62
2022-10-28T10:40:57.197Z,18.68
2022-10-28T10:43:35.882Z,18.78
2022-10-28T10:46:16.639Z,18.85
2022-10-28T10:48:45.190Z,18.95
2022-10-28T10:51:26.061Z,19.11
2022-10-28T10:54:01.945Z,19.24
2022-10-28T10:56:33.162Z,19.34
2022-10-28T10:59:05.992Z,19.41
2022-10-28T11:01:40.130Z,19.55
2022-10-28T11:04:15.751Z,19.70
2022-10-28T11:06:48.800Z,19.83
2022-10-28T11:09:30.479Z,19.97
2022-10-28T11:11:58.290Z,20.13
2022-10-28T11:14:33.017Z,20.25
2022-10-28T11:17:03.227Z,20.36
2022-10-28T11:19:32.248Z,20.43
2022-10-28T11:22:10.297Z,20.58
2022-10-28T11:25:19.424Z,20.71
2022-10-28T11:27:49.958Z,20.79
2022-10-28T11:30:32.448Z,20.90
2022-10-28T11:33:29.604Z,21.06
2022-10-28T11:36:55.347Z,21.25
2022-10-28T11:39:50.700Z,21.36
2022-10-28T11:42:45.607Z,21.47
2022-10-28T11:45:29.848Z,21.52
2022-10-28T11:48:12.659Z,21.64
2022-10-28T11:51:07.854Z,21.78
2022-10-28T11:54:31.637Z,21.96
2022-10-28T11:57:24.049Z,22.18
2022-10-28T12:00:25.266Z,22.39
2022-10-28T12:03:29.952Z,22.54
2022-10-28T12:06:15.185Z,22.62
2022-10-28T12:12:24.474Z,22.91
2022-10-28T12:15:10.958Z,23.03
2022-10-28T12:18:05.996Z,23.17
2022-10-28T12:20:45.428Z,23.42
2022-10-28T12:23:21.006Z,23.64
2022-10-28T12:25:55.197Z,23.84
2022-10-28T12:28:33.667Z,23.95
2022-10-28T12:31:02.602Z,24.11
2022-10-28T12:33:39.485Z,24.38
2022-10-28T12:36:12.644Z,24.66
2022-10-28T12:39:02.049Z,24.95
2022-10-28T12:42:11.851Z,24.98
2022-10-28T12:44:40.819Z,25.04
2022-10-28T12:47:39.120Z,25.22
2022-10-28T12:50:32.395Z,25.18
2022-10-28T12:53:09.735Z,25.44
2022-10-28T12:55:48.713Z,25.64
2022-10-28T12:58:43.070Z,25.88
2022-10-28T13:01:16.812Z,26.23
2022-10-28T13:03:44.718Z,26.07
2022-10-28T13:06:33.469Z,26.00
2022-10-28T13:09:33.354Z,26.04
2022-10-28T13:12:34.711Z,26.29
2022-10-28T13:15:35.338Z,26.41
2022-10-28T13:18:26.766Z,26.64
2022-10-28T13:21:33.453Z,26.83
2022-10-28T13:24:29.481Z,27.10
2022-10-28T13:26:57.542Z,27.04
2022-10-28T13:29:29.324Z,27.17
2022-10-28T13:31:57.163Z,27.33
2022-10-28T13:34:37.692Z,27.58
2022-10-28T13:37:16.644Z,27.74
2022-10-28T13:39:47.084Z,27.88
2022-10-28T13:42:23.448Z,27.99
2022-10-28T13:45:00.941Z,28.04
2022-10-28T13:47:33.676Z,28.06
2022-10-28T13:50:08.076Z,28.22
2022-10-28T13:52:38.645Z,28.34
2022-10-28T13:55:26.935Z,28.47
2022-10-28T13:58:04.554Z,28.51
2022-10-28T14:00:32.249Z,28.58
2022-10-28T14:03:17.422Z,28.62
2022-10-28T14:05:45.150Z,28.73
2022-10-28T14:08:24.832Z,28.90
2022-10-28T14:11:32.573Z,29.01
2022-10-28T14:14:03.836Z,29.01
2022-10-28T14:16:37.527Z,29.17
2022-10-28T14:19:11.691Z,29.09
2022-10-28T14:21:56.442Z,28.94
2022-10-28T14:24:42.472Z,28.68
2022-10-28T14:27:13.233Z,28.46
2022-10-28T14:30:25.106Z,28.21
2022-10-28T14:33:18.830Z,28.05
2022-10-28T14:35:48.065Z,28.01
2022-10-28T14:38:45.394Z,27.91
2022-10-28T14:41:50.774Z,27.32
2022-10-28T14:44:58.599Z,26.60
2022-10-28T14:48:08.746Z,25.92
2022-10-28T14:50:49.735Z,25.31
2022-10-28T14:53:32.116Z,24.75
2022-10-28T14:56:39.870Z,24.26
2022-10-28T14:59:32.148Z,23.76
2022-10-28T15:02:14.143Z,23.32
2022-10-28T15:04:44.855Z,22.93
2022-10-28T15:07:20.664Z,22.55
2022-10-28T15:09:53.558Z,22.21
2022-10-28T15:12:26.292Z,21.90
2022-10-28T15:14:57.212Z,21.59
2022-10-28T15:17:39.423Z,21.32
2022-10-28T15:20:24.942Z,21.05
2022-10-28T15:22:54.900Z,20.83
2022-10-28T15:25:23.539Z,20.65
2022-10-28T15:27:52.579Z,20.45
2022-10-28T15:30:26.802Z,20.27
2022-10-28T15:33:15.412Z,20.08
2022-10-28T15:35:43.086Z,19.86
2022-10-28T15:38:38.343Z,19.67
2022-10-28T15:41:25.730Z,19.51
2022-10-28T15:44:39.681Z,19.31
2022-10-28T15:47:34.907Z,19.17
2022-10-28T15:50:21.140Z,19.04
2022-10-28T15:52:57.144Z,18.92
2022-10-28T15:55:47.873Z,18.82
2022-10-28T15:58:20.148Z,18.71
2022-10-28T16:00:55.679Z,18.63
2022-10-28T16:03:39.783Z,18.56
2022-10-28T16:06:33.755Z,18.48
2022-10-28T16:09:09.980Z,18.42
2022-10-28T16:11:44.620Z,18.36
2022-10-28T16:14:40.315Z,18.29
2022-10-28T16:17:27.014Z,18.24
2022-10-28T16:20:01.462Z,18.18
2022-10-28T16:22:31.356Z,18.16
2022-10-28T16:24:58.799Z,18.13
2022-10-28T16:27:31.169Z,18.08
2022-10-28T16:29:59.051Z,18.04
2022-10-28T16:32:40.018Z,18.03
2022-10-28T16:35:33.991Z,17.99
2022-10-28T16:38:01.884Z,17.96
2022-10-28T16:43:20.191Z,17.89
2022-10-28T16:45:49.645Z,17.86
2022-10-28T16:48:19.489Z,17.85
2022-10-28T16:51:03.018Z,17.82
2022-10-28T16:53:30.990Z,17.75
2022-10-28T16:56:01.586Z,17.72
2022-10-28T16:58:30.255Z,17.66
2022-10-28T17:00:59.641Z,17.62
2022-10-28T17:03:30.181Z,17.59
2022-10-28T17:05:57.714Z,17.55
2022-10-28T17:08:42.519Z,17.51
2022-10-28T17:11:16.672Z,17.49
2022-10-28T17:13:44.693Z,17.43
2022-10-28T17:16:13.220Z,17.38
2022-10-28T17:18:42.551Z,17.37
2022-10-28T17:21:10.219Z,17.36
2022-10-28T17:23:40.306Z,17.33
2022-10-28T17:26:07.810Z,17.31
2022-10-28T17:28:38.848Z,17.28
2022-10-28T17:31:08.912Z,17.27
2022-10-28T17:33:37.649Z,17.24
2022-10-28T17:36:08.613Z,17.23
2022-10-28T17:38:36.875Z,17.19
2022-10-28T17:41:04.438Z,17.17
2022-10-28T17:43:32.300Z,17.13
2022-10-28T17:46:07.648Z,17.10
2022-10-28T17:48:43.357Z,17.08
2022-10-28T17:51:11.103Z,17.08
2022-10-28T17:53:38.965Z,17.05
2022-10-28T17:56:07.741Z,17.02
2022-10-28T17:58:35.780Z,17.01
2022-10-28T18:01:08.200Z,16.96
2022-10-28T18:03:38.964Z,16.94
2022-10-28T18:06:13.045Z,16.95
2022-10-28T18:08:43.662Z,16.90
2022-10-28T18:11:14.221Z,16.89
2022-10-28T18:13:45.147Z,16.89
2022-10-28T18:16:17.018Z,16.89
2022-10-28T18:18:45.169Z,16.89
2022-10-28T18:21:14.293Z,16.89
2022-10-28T18:23:42.951Z,16.87
2022-10-28T18:26:15.826Z,16.87
2022-10-28T18:28:45.941Z,16.88
2022-10-28T18:31:17.152Z,16.83
2022-10-28T18:33:47.526Z,16.78
2022-10-28T18:36:18.518Z,16.76
2022-10-28T18:38:46.971Z,16.72
2022-10-28T18:41:23.793Z,16.67
2022-10-28T18:43:56.839Z,16.59
2022-10-28T18:46:25.663Z,16.53
2022-10-28T18:48:53.805Z,16.49
2022-10-28T18:51:21.377Z,16.44
2022-10-28T18:53:50.284Z,16.40
2022-10-28T18:56:24.537Z,16.35
2022-10-28T18:58:52.615Z,16.30
2022-10-28T19:01:26.364Z,16.23
2022-10-28T19:04:04.055Z,16.18
2022-10-28T19:06:33.690Z,16.14
2022-10-28T19:09:05.147Z,16.09
2022-10-28T19:11:34.556Z,16.06
2022-10-28T19:14:06.098Z,16.05
2022-10-28T19:16:36.458Z,16.01
2022-10-28T19:19:05.692Z,15.96
2022-10-28T19:21:34.224Z,15.98
2022-10-28T19:24:01.950Z,15.96
2022-10-28T19:26:32.014Z,15.95
2022-10-28T19:29:00.143Z,15.90
2022-10-28T19:31:28.471Z,15.87
2022-10-28T19:33:56.093Z,15.87
2022-10-28T19:36:27.267Z,15.83
2022-10-28T19:38:56.641Z,15.80
2022-10-28T19:41:30.263Z,15.75
2022-10-28T19:44:01.264Z,15.71
2022-10-28T19:46:33.989Z,15.72
2022-10-28T19:49:05.742Z,15.71
2022-10-28T19:51:40.289Z,15.67
2022-10-28T19:54:14.973Z,15.65
2022-10-28T19:56:44.561Z,15.60
2022-10-28T19:59:12.275Z,15.58
2022-10-28T20:01:41.116Z,15.52
2022-10-28T20:04:10.221Z,15.48
2022-10-28T20:06:40.800Z,15.46
2022-10-28T20:09:08.698Z,15.45
2022-10-28T20:11:38.960Z,15.45
2022-10-28T20:14:11.662Z,15.42
2022-10-28T20:16:43.827Z,15.40
2022-10-28T20:19:12.009Z,15.40
2022-10-28T20:21:40.188Z,15.38
2022-10-28T20:24:08.838Z,15.34
2022-10-28T20:26:38.908Z,15.32
2022-10-28T20:29:15.622Z,15.31
2022-10-28T20:31:43.604Z,15.31
2022-10-28T20:34:11.125Z,15.26
2022-10-28T20:36:46.241Z,15.19
2022-10-28T20:39:27.258Z,15.15
2022-10-28T20:42:10.590Z,15.13
2022-10-28T20:44:49.639Z,15.13
2022-10-28T20:47:25.365Z,15.12
2022-10-28T20:50:02.821Z,15.11
2022-10-28T20:52:35.878Z,15.10
2022-10-28T20:55:06.195Z,15.08
2022-10-28T20:57:34.714Z,15.05
2022-10-28T21:00:04.740Z,15.00
2022-10-28T21:02:37.717Z,14.99
2022-10-28T21:05:07.240Z,14.98
2022-10-28T21:07:36.240Z,14.99
2022-10-28T21:10:05.363Z,15.00
2022-10-28T21:12:33.798Z,14.98
2022-10-28T21:15:02.341Z,14.93
2022-10-28T21:17:31.086Z,14.95
2022-10-28T21:22:34.772Z,15.01
2022-10-28T21:25:03.444Z,15.02
2022-10-28T21:27:32.540Z,15.01
2022-10-28T21:30:01.577Z,15.01
2022-10-28T21:32:31.920Z,15.00
2022-10-28T21:35:01.076Z,15.00
2022-10-28T21:37:29.735Z,14.93
2022-10-28T21:40:00.911Z,14.88
2022-10-28T21:42:29.679Z,14.89
2022-10-28T21:44:57.844Z,14.85
2022-10-28T21:47:27.544Z,14.84
2022-10-28T21:49:55.240Z,14.83
2022-10-28T21:52:22.915Z,14.82
2022-10-28T21:54:50.346Z,14.80
2022-10-28T21:57:18.767Z,14.76
2022-10-28T21:59:49.544Z,14.70
2022-10-28T22:02:17.246Z,14.69
2022-10-28T22:04:45.054Z,14.66
2022-10-28T22:07:17.479Z,14.65
2022-10-28T22:09:54.180Z,14.62
2022-10-28T22:12:26.824Z,14.65
2022-10-28T22:14:54.685Z,14.58
2022-10-28T22:17:22.377Z,14.57
2022-10-28T22:19:52.373Z,14.55
2022-10-28T22:22:22.596Z,14.55
2022-10-28T22:24:58.371Z,14.54
2022-10-28T22:27:32.697Z,14.52
2022-10-28T22:30:09.738Z,14.48
2022-10-28T22:38:34.475Z,14.37
2022-10-28T22:41:23.914Z,14.32
2022-10-28T22:44:05.609Z,14.29
2022-10-28T22:46:55.298Z,14.22
2022-10-28T22:49:26.343Z,14.17
2022-10-28T22:51:54.422Z,14.17
2022-10-28T22:54:21.896Z,14.16
2022-10-28T22:56:49.586Z,14.13
2022-10-28T22:59:17.120Z,14.13
2022-10-28T23:01:44.618Z,14.12
2022-10-28T23:04:12.596Z,14.08
2022-10-28T23:06:40.237Z,14.07
2022-10-28T23:09:07.707Z,14.00
2022-10-28T23:11:35.460Z,13.98
2022-10-28T23:14:02.891Z,13.96
2022-10-28T23:16:30.646Z,13.98
2022-10-28T23:19:01.138Z,14.00
2022-10-28T23:21:28.987Z,14.02
2022-10-28T23:23:59.801Z,14.01
2022-10-28T23:26:29.569Z,14.00
2022-10-28T23:28:59.877Z,14.01
2022-10-28T23:31:28.330Z,14.02
2022-10-28T23:33:55.901Z,14.00
2022-10-28T23:36:23.624Z,14.00
2022-10-28T23:38:52.501Z,13.96
2022-10-28T23:41:21.071Z,13.91
2022-10-28T23:43:49.455Z,13.89
2022-10-28T23:46:18.126Z,13.90
2022-10-28T23:48:45.703Z,13.89
2022-10-28T23:51:14.114Z,13.90
2022-10-28T23:53:41.915Z,13.87
2022-10-28T23:56:09.422Z,13.90
2022-10-28T23:58:36.914Z,13.91
